sensor_id;sensor_type;location;lat;lon;timestamp;pressure;altitude;pressure_sealevel;temperature;humidity
71966;BME280;59836;52.132;5.442;2023-04-27T00:00:59;102198.34;;;3.82;83.16
71966;BME280;59836;52.132;5.442;2023-04-27T00:03:25;102201.03;;;3.82;83.31
71966;BME280;59836;52.132;5.442;2023-04-27T00:05:52;102203.72;;;3.82;83.06
71966;BME280;59836;52.132;5.442;2023-04-27T00:08:19;102203.44;;;3.77;83.11
71966;BME280;59836;52.132;5.442;2023-04-27T00:10:45;102209.19;;;3.74;82.79
71966;BME280;59836;52.132;5.442;2023-04-27T00:13:12;102208.56;;;3.72;82.78
71966;BME280;59836;52.132;5.442;2023-04-27T00:15:38;102219.03;;;3.67;83.26
71966;BME280;59836;52.132;5.442;2023-04-27T00:18:06;102214.06;;;3.64;83.02
71966;BME280;59836;52.132;5.442;2023-04-27T00:20:32;102205.75;;;3.59;83.31
71966;BME280;59836;52.132;5.442;2023-04-27T00:22:59;102220.56;;;3.54;83.76
71966;BME280;59836;52.132;5.442;2023-04-27T00:25:25;102210.63;;;3.55;83.52
71966;BME280;59836;52.132;5.442;2023-04-27T00:27:52;102221.38;;;3.55;83.18
71966;BME280;59836;52.132;5.442;2023-04-27T00:30:18;102216.59;;;3.50;83.66
71966;BME280;59836;52.132;5.442;2023-04-27T00:32:45;102208.53;;;3.50;83.33
71966;BME280;59836;52.132;5.442;2023-04-27T00:35:11;102210.94;;;3.45;83.35
71966;BME280;59836;52.132;5.442;2023-04-27T00:37:38;102208.81;;;3.40;83.59
71966;BME280;59836;52.132;5.442;2023-04-27T00:40:05;102200.50;;;3.35;83.43
71966;BME280;59836;52.132;5.442;2023-04-27T00:42:34;102204.56;;;3.31;83.32
71966;BME280;59836;52.132;5.442;2023-04-27T00:45:01;102203.75;;;3.31;83.37
71966;BME280;59836;52.132;5.442;2023-04-27T00:47:29;102202.09;;;3.30;83.44
71966;BME280;59836;52.132;5.442;2023-04-27T00:49:56;102206.44;;;3.31;83.71
71966;BME280;59836;52.132;5.442;2023-04-27T00:52:23;102211.16;;;3.29;83.62
71966;BME280;59836;52.132;5.442;2023-04-27T00:54:50;102212.34;;;3.26;83.07
71966;BME280;59836;52.132;5.442;2023-04-27T00:57:18;102214.00;;;3.27;82.85
71966;BME280;59836;52.132;5.442;2023-04-27T00:59:45;102213.94;;;3.20;83.40
71966;BME280;59836;52.132;5.442;2023-04-27T01:02:12;102215.53;;;3.15;83.42
71966;BME280;59836;52.132;5.442;2023-04-27T01:04:39;102220.03;;;3.14;83.39
71966;BME280;59836;52.132;5.442;2023-04-27T01:07:06;102212.84;;;3.15;83.59
71966;BME280;59836;52.132;5.442;2023-04-27T01:09:33;102205.97;;;3.12;83.37
71966;BME280;59836;52.132;5.442;2023-04-27T01:11:59;102200.19;;;3.08;83.14
71966;BME280;59836;52.132;5.442;2023-04-27T01:14:26;102203.41;;;3.04;83.10
71966;BME280;59836;52.132;5.442;2023-04-27T01:16:53;102193.91;;;3.01;83.19
71966;BME280;59836;52.132;5.442;2023-04-27T01:19:19;102195.94;;;2.99;83.17
71966;BME280;59836;52.132;5.442;2023-04-27T01:21:45;102200.81;;;2.95;83.43
71966;BME280;59836;52.132;5.442;2023-04-27T01:24:12;102195.44;;;2.95;83.48
71966;BME280;59836;52.132;5.442;2023-04-27T01:26:38;102197.47;;;2.93;83.39
71966;BME280;59836;52.132;5.442;2023-04-27T01:29:05;102207.75;;;2.90;83.60
71966;BME280;59836;52.132;5.442;2023-04-27T01:31:31;102205.88;;;2.90;83.61
71966;BME280;59836;52.132;5.442;2023-04-27T01:33:58;102212.47;;;2.88;83.39
71966;BME280;59836;52.132;5.442;2023-04-27T01:36:24;102215.97;;;2.88;83.04
71966;BME280;59836;52.132;5.442;2023-04-27T01:38:53;102211.81;;;2.86;83.55
71966;BME280;59836;52.132;5.442;2023-04-27T01:41:19;102202.66;;;2.80;83.55
71966;BME280;59836;52.132;5.442;2023-04-27T01:43:45;102203.00;;;2.77;83.70
71966;BME280;59836;52.132;5.442;2023-04-27T01:46:13;102203.38;;;2.74;83.39
71966;BME280;59836;52.132;5.442;2023-04-27T01:48:40;102200.06;;;2.72;83.69
71966;BME280;59836;52.132;5.442;2023-04-27T01:51:07;102188.69;;;2.70;83.70
71966;BME280;59836;52.132;5.442;2023-04-27T01:53:34;102187.66;;;2.71;83.75
71966;BME280;59836;52.132;5.442;2023-04-27T01:56:00;102187.22;;;2.67;83.51
71966;BME280;59836;52.132;5.442;2023-04-27T01:58:27;102190.72;;;2.68;83.58
71966;BME280;59836;52.132;5.442;2023-04-27T02:00:53;102190.06;;;2.65;83.77
71966;BME280;59836;52.132;5.442;2023-04-27T02:03:20;102188.44;;;2.64;83.76
71966;BME280;59836;52.132;5.442;2023-04-27T02:05:47;102179.91;;;2.61;84.09
71966;BME280;59836;52.132;5.442;2023-04-27T02:08:14;102189.16;;;2.58;84.01
71966;BME280;59836;52.132;5.442;2023-04-27T02:10:40;102186.66;;;2.57;83.90
71966;BME280;59836;52.132;5.442;2023-04-27T02:13:07;102188.22;;;2.51;83.79
71966;BME280;59836;52.132;5.442;2023-04-27T02:15:35;102192.72;;;2.50;84.10
71966;BME280;59836;52.132;5.442;2023-04-27T02:18:02;102202.63;;;2.50;84.06
71966;BME280;59836;52.132;5.442;2023-04-27T02:20:30;102202.63;;;2.50;84.03
71966;BME280;59836;52.132;5.442;2023-04-27T02:22:56;102193.75;;;2.49;84.03
71966;BME280;59836;52.132;5.442;2023-04-27T02:25:23;102194.31;;;2.45;83.91
71966;BME280;59836;52.132;5.442;2023-04-27T02:27:50;102190.13;;;2.42;84.11
71966;BME280;59836;52.132;5.442;2023-04-27T02:30:16;102187.66;;;2.41;83.95
71966;BME280;59836;52.132;5.442;2023-04-27T02:32:43;102194.91;;;2.32;83.90
71966;BME280;59836;52.132;5.442;2023-04-27T02:35:10;102191.41;;;2.31;84.25
71966;BME280;59836;52.132;5.442;2023-04-27T02:37:37;102185.03;;;2.32;84.13
71966;BME280;59836;52.132;5.442;2023-04-27T02:40:04;102189.19;;;2.35;84.40
71966;BME280;59836;52.132;5.442;2023-04-27T02:42:34;102184.69;;;2.35;84.23
71966;BME280;59836;52.132;5.442;2023-04-27T02:45:01;102174.78;;;2.36;83.89
71966;BME280;59836;52.132;5.442;2023-04-27T02:47:27;102176.66;;;2.35;83.58
71966;BME280;59836;52.132;5.442;2023-04-27T02:49:53;102175.50;;;2.30;84.10
71966;BME280;59836;52.132;5.442;2023-04-27T02:52:20;102172.38;;;2.26;83.82
71966;BME280;59836;52.132;5.442;2023-04-27T02:54:46;102176.06;;;2.25;84.26
71966;BME280;59836;52.132;5.442;2023-04-27T02:57:13;102175.41;;;2.23;84.17
71966;BME280;59836;52.132;5.442;2023-04-27T02:59:39;102172.44;;;2.18;84.45
71966;BME280;59836;52.132;5.442;2023-04-27T03:02:05;102174.84;;;2.13;84.29
71966;BME280;59836;52.132;5.442;2023-04-27T03:04:32;102178.53;;;2.12;84.32
71966;BME280;59836;52.132;5.442;2023-04-27T03:06:59;102175.84;;;2.12;84.47
71966;BME280;59836;52.132;5.442;2023-04-27T03:09:25;102181.00;;;2.13;84.03
71966;BME280;59836;52.132;5.442;2023-04-27T03:11:52;102188.88;;;2.15;84.20
71966;BME280;59836;52.132;5.442;2023-04-27T03:14:18;102171.16;;;2.14;84.38
71966;BME280;59836;52.132;5.442;2023-04-27T03:16:45;102179.88;;;2.08;84.10
71966;BME280;59836;52.132;5.442;2023-04-27T03:19:12;102183.56;;;2.06;83.90
71966;BME280;59836;52.132;5.442;2023-04-27T03:21:38;102190.59;;;2.08;83.75
71966;BME280;59836;52.132;5.442;2023-04-27T03:24:05;102188.28;;;2.04;84.20
71966;BME280;59836;52.132;5.442;2023-04-27T03:26:31;102188.94;;;2.06;84.16
71966;BME280;59836;52.132;5.442;2023-04-27T03:28:58;102193.63;;;2.04;84.20
71966;BME280;59836;52.132;5.442;2023-04-27T03:31:24;102193.81;;;2.03;84.29
71966;BME280;59836;52.132;5.442;2023-04-27T03:33:51;102188.28;;;2.04;83.89
71966;BME280;59836;52.132;5.442;2023-04-27T03:36:17;102185.31;;;1.99;84.11
71966;BME280;59836;52.132;5.442;2023-04-27T03:38:44;102185.66;;;1.96;83.85
71966;BME280;59836;52.132;5.442;2023-04-27T03:41:11;102184.66;;;1.97;83.76
71966;BME280;59836;52.132;5.442;2023-04-27T03:43:37;102190.66;;;1.99;83.92
71966;BME280;59836;52.132;5.442;2023-04-27T03:46:04;102182.81;;;1.98;83.98
71966;BME280;59836;52.132;5.442;2023-04-27T03:48:30;102187.31;;;1.97;83.82
71966;BME280;59836;52.132;5.442;2023-04-27T03:50:57;102198.03;;;1.97;83.96
71966;BME280;59836;52.132;5.442;2023-04-27T03:53:25;102190.19;;;1.96;84.14
71966;BME280;59836;52.132;5.442;2023-04-27T03:55:51;102190.56;;;1.92;83.84
71966;BME280;59836;52.132;5.442;2023-04-27T03:58:18;102190.91;;;1.89;83.94
71966;BME280;59836;52.132;5.442;2023-04-27T04:00:44;102186.78;;;1.79;84.08
71966;BME280;59836;52.132;5.442;2023-04-27T04:03:11;102190.31;;;1.79;84.15
71966;BME280;59836;52.132;5.442;2023-04-27T04:05:38;102183.09;;;1.80;84.74
71966;BME280;59836;52.132;5.442;2023-04-27T04:08:04;102191.13;;;1.80;84.23
71966;BME280;59836;52.132;5.442;2023-04-27T04:10:31;102187.78;;;1.77;84.18
71966;BME280;59836;52.132;5.442;2023-04-27T04:12:57;102186.31;;;1.75;84.76
71966;BME280;59836;52.132;5.442;2023-04-27T04:15:24;102196.00;;;1.76;84.61
71966;BME280;59836;52.132;5.442;2023-04-27T04:17:50;102189.00;;;1.75;84.65
71966;BME280;59836;52.132;5.442;2023-04-27T04:20:17;102192.84;;;1.72;84.78
71966;BME280;59836;52.132;5.442;2023-04-27T04:22:44;102194.50;;;1.73;84.92
71966;BME280;59836;52.132;5.442;2023-04-27T04:25:10;102199.50;;;1.76;84.80
71966;BME280;59836;52.132;5.442;2023-04-27T04:27:38;102201.81;;;1.80;84.70
71966;BME280;59836;52.132;5.442;2023-04-27T04:30:05;102202.66;;;1.80;84.28
71966;BME280;59836;52.132;5.442;2023-04-27T04:32:33;102208.84;;;1.81;84.43
71966;BME280;59836;52.132;5.442;2023-04-27T04:35:04;102212.16;;;1.83;84.56
71966;BME280;59836;52.132;5.442;2023-04-27T04:37:34;102211.16;;;1.84;84.35
71966;BME280;59836;52.132;5.442;2023-04-27T04:40:05;102215.50;;;1.85;84.22
71966;BME280;59836;52.132;5.442;2023-04-27T04:42:35;102215.38;;;1.78;84.57
71966;BME280;59836;52.132;5.442;2023-04-27T04:45:03;102217.88;;;1.80;84.45
71966;BME280;59836;52.132;5.442;2023-04-27T04:47:29;102223.22;;;1.80;84.54
71966;BME280;59836;52.132;5.442;2023-04-27T04:49:59;102220.19;;;1.83;84.62
71966;BME280;59836;52.132;5.442;2023-04-27T04:52:26;102226.19;;;1.85;84.40
71966;BME280;59836;52.132;5.442;2023-04-27T04:54:53;102223.88;;;1.82;85.04
71966;BME280;59836;52.132;5.442;2023-04-27T04:57:19;102229.88;;;1.84;84.79
71966;BME280;59836;52.132;5.442;2023-04-27T04:59:46;102228.88;;;1.85;85.11
71966;BME280;59836;52.132;5.442;2023-04-27T05:02:13;102223.16;;;1.88;84.97
71966;BME280;59836;52.132;5.442;2023-04-27T05:04:39;102222.16;;;1.89;85.56
71966;BME280;59836;52.132;5.442;2023-04-27T05:07:06;102213.13;;;1.90;85.39
71966;BME280;59836;52.132;5.442;2023-04-27T05:09:33;102218.97;;;1.94;85.54
71966;BME280;59836;52.132;5.442;2023-04-27T05:12:00;102212.91;;;2.00;86.05
71966;BME280;59836;52.132;5.442;2023-04-27T05:14:27;102215.69;;;2.06;85.62
71966;BME280;59836;52.132;5.442;2023-04-27T05:16:53;102215.78;;;2.13;85.89
71966;BME280;59836;52.132;5.442;2023-04-27T05:19:20;102224.31;;;2.17;85.77
71966;BME280;59836;52.132;5.442;2023-04-27T05:21:47;102223.97;;;2.20;85.92
71966;BME280;59836;52.132;5.442;2023-04-27T05:24:13;102222.75;;;2.22;86.44
71966;BME280;59836;52.132;5.442;2023-04-27T05:26:41;102226.94;;;2.25;86.25
71966;BME280;59836;52.132;5.442;2023-04-27T05:29:08;102224.06;;;2.27;86.71
71966;BME280;59836;52.132;5.442;2023-04-27T05:31:35;102220.88;;;2.31;87.10
71966;BME280;59836;52.132;5.442;2023-04-27T05:34:01;102224.47;;;2.39;86.80
71966;BME280;59836;52.132;5.442;2023-04-27T05:36:28;102228.75;;;2.48;86.72
71966;BME280;59836;52.132;5.442;2023-04-27T05:38:54;102229.50;;;2.57;86.84
71966;BME280;59836;52.132;5.442;2023-04-27T05:41:21;102236.66;;;2.64;86.54
71966;BME280;59836;52.132;5.442;2023-04-27T05:43:49;102229.72;;;2.70;86.67
71966;BME280;59836;52.132;5.442;2023-04-27T05:46:15;102232.47;;;2.77;86.44
71966;BME280;59836;52.132;5.442;2023-04-27T05:48:42;102230.75;;;2.84;86.34
71966;BME280;59836;52.132;5.442;2023-04-27T05:51:08;102226.69;;;2.88;86.27
71966;BME280;59836;52.132;5.442;2023-04-27T05:53:35;102235.66;;;2.95;86.52
71966;BME280;59836;52.132;5.442;2023-04-27T05:56:01;102230.19;;;3.04;85.97
71966;BME280;59836;52.132;5.442;2023-04-27T05:58:29;102229.47;;;3.10;85.88
71966;BME280;59836;52.132;5.442;2023-04-27T06:00:56;102227.72;;;3.17;85.72
71966;BME280;59836;52.132;5.442;2023-04-27T06:03:23;102226.97;;;3.23;85.56
71966;BME280;59836;52.132;5.442;2023-04-27T06:05:54;102228.91;;;3.30;85.04
71966;BME280;59836;52.132;5.442;2023-04-27T06:08:24;102226.94;;;3.38;85.32
71966;BME280;59836;52.132;5.442;2023-04-27T06:10:51;102227.03;;;3.45;85.64
71966;BME280;59836;52.132;5.442;2023-04-27T06:13:18;102232.47;;;3.52;85.22
71966;BME280;59836;52.132;5.442;2023-04-27T06:15:45;102232.56;;;3.59;84.78
71966;BME280;59836;52.132;5.442;2023-04-27T06:18:12;102224.59;;;3.65;84.77
71966;BME280;59836;52.132;5.442;2023-04-27T06:20:38;102226.72;;;3.70;84.57
71966;BME280;59836;52.132;5.442;2023-04-27T06:23:05;102218.53;;;3.78;84.50
71966;BME280;59836;52.132;5.442;2023-04-27T06:25:31;102215.94;;;3.85;85.00
71966;BME280;59836;52.132;5.442;2023-04-27T06:27:58;102219.31;;;3.94;85.01
71966;BME280;59836;52.132;5.442;2023-04-27T06:30:24;102228.25;;;4.01;84.42
71966;BME280;59836;52.132;5.442;2023-04-27T06:32:51;102230.19;;;4.07;84.07
71966;BME280;59836;52.132;5.442;2023-04-27T06:35:18;102219.06;;;4.10;83.87
71966;BME280;59836;52.132;5.442;2023-04-27T06:37:44;102225.31;;;4.18;83.96
71966;BME280;59836;52.132;5.442;2023-04-27T06:40:11;102231.59;;;4.25;83.35
71966;BME280;59836;52.132;5.442;2023-04-27T06:42:37;102229.16;;;4.30;83.52
71966;BME280;59836;52.132;5.442;2023-04-27T06:45:04;102224.69;;;4.37;83.70
71966;BME280;59836;52.132;5.442;2023-04-27T06:47:32;102225.56;;;4.45;83.46
71966;BME280;59836;52.132;5.442;2023-04-27T06:49:59;102228.13;;;4.53;83.19
71966;BME280;59836;52.132;5.442;2023-04-27T06:52:25;102224.44;;;4.61;82.43
71966;BME280;59836;52.132;5.442;2023-04-27T06:54:52;102230.53;;;4.69;82.49
71966;BME280;59836;52.132;5.442;2023-04-27T06:57:19;102220.00;;;4.75;82.25
71966;BME280;59836;52.132;5.442;2023-04-27T06:59:45;102227.91;;;4.83;81.69
71966;BME280;59836;52.132;5.442;2023-04-27T07:02:12;102219.69;;;4.91;81.63
71966;BME280;59836;52.132;5.442;2023-04-27T07:04:38;102222.22;;;4.99;80.71
71966;BME280;59836;52.132;5.442;2023-04-27T07:07:05;102222.69;;;5.10;80.43
71966;BME280;59836;52.132;5.442;2023-04-27T07:09:31;102230.59;;;5.18;79.99
71966;BME280;59836;52.132;5.442;2023-04-27T07:12:00;102220.31;;;5.28;80.47
71966;BME280;59836;52.132;5.442;2023-04-27T07:14:27;102213.31;;;5.41;80.17
71966;BME280;59836;52.132;5.442;2023-04-27T07:16:53;102219.16;;;5.51;79.88
71966;BME280;59836;52.132;5.442;2023-04-27T07:19:20;102231.19;;;5.62;78.91
71966;BME280;59836;52.132;5.442;2023-04-27T07:21:47;102232.50;;;5.73;78.59
71966;BME280;59836;52.132;5.442;2023-04-27T07:24:14;102229.63;;;5.81;77.95
71966;BME280;59836;52.132;5.442;2023-04-27T07:26:40;102234.38;;;5.93;76.77
71966;BME280;59836;52.132;5.442;2023-04-27T07:29:07;102228.19;;;5.99;75.75
71966;BME280;59836;52.132;5.442;2023-04-27T07:31:51;102225.16;;;6.09;75.18
71966;BME280;59836;52.132;5.442;2023-04-27T07:34:18;102230.56;;;6.22;74.79
71966;BME280;59836;52.132;5.442;2023-04-27T07:36:45;102224.75;;;6.32;74.21
71966;BME280;59836;52.132;5.442;2023-04-27T07:39:12;102220.19;;;6.39;73.75
71966;BME280;59836;52.132;5.442;2023-04-27T07:41:39;102215.00;;;6.51;73.80
71966;BME280;59836;52.132;5.442;2023-04-27T07:44:07;102226.00;;;6.63;72.97
71966;BME280;59836;52.132;5.442;2023-04-27T07:46:41;102221.41;;;6.77;73.21
71966;BME280;59836;52.132;5.442;2023-04-27T07:49:08;102210.19;;;6.87;72.20
71966;BME280;59836;52.132;5.442;2023-04-27T07:51:34;102218.88;;;6.96;71.21
71966;BME280;59836;52.132;5.442;2023-04-27T07:54:02;102212.41;;;7.03;71.21
71966;BME280;59836;52.132;5.442;2023-04-27T07:56:29;102214.47;;;7.15;70.96
71966;BME280;59836;52.132;5.442;2023-04-27T07:58:56;102219.00;;;7.28;69.79
71966;BME280;59836;52.132;5.442;2023-04-27T08:01:22;102219.56;;;7.36;69.70
71966;BME280;59836;52.132;5.442;2023-04-27T08:03:51;102220.34;;;7.50;68.65
71966;BME280;59836;52.132;5.442;2023-04-27T08:06:18;102216.16;;;7.61;67.90
71966;BME280;59836;52.132;5.442;2023-04-27T08:08:45;102212.97;;;7.71;67.97
71966;BME280;59836;52.132;5.442;2023-04-27T08:11:11;102214.16;;;7.82;66.42
71966;BME280;59836;52.132;5.442;2023-04-27T08:13:41;102218.53;;;7.83;65.36
71966;BME280;59836;52.132;5.442;2023-04-27T08:16:15;102215.56;;;7.91;65.89
71966;BME280;59836;52.132;5.442;2023-04-27T08:18:42;102209.88;;;8.00;64.84
71966;BME280;59836;52.132;5.442;2023-04-27T08:21:09;102210.91;;;8.05;64.02
71966;BME280;59836;52.132;5.442;2023-04-27T08:23:36;102215.00;;;8.15;63.94
71966;BME280;59836;52.132;5.442;2023-04-27T08:26:04;102219.47;;;8.27;62.82
71966;BME280;59836;52.132;5.442;2023-04-27T08:28:38;102216.91;;;8.33;63.27
71966;BME280;59836;52.132;5.442;2023-04-27T08:31:09;102218.97;;;8.37;62.59
71966;BME280;59836;52.132;5.442;2023-04-27T08:33:36;102217.50;;;8.41;62.40
71966;BME280;59836;52.132;5.442;2023-04-27T08:36:03;102215.75;;;8.47;62.48
71966;BME280;59836;52.132;5.442;2023-04-27T08:38:29;102208.91;;;8.51;62.53
71966;BME280;59836;52.132;5.442;2023-04-27T08:40:56;102203.81;;;8.62;62.57
71966;BME280;59836;52.132;5.442;2023-04-27T08:43:34;102204.13;;;8.72;61.99
71966;BME280;59836;52.132;5.442;2023-04-27T08:46:01;102208.22;;;8.81;61.57
71966;BME280;59836;52.132;5.442;2023-04-27T08:48:28;102208.53;;;8.92;61.56
71966;BME280;59836;52.132;5.442;2023-04-27T08:50:56;102201.38;;;8.97;60.48
71966;BME280;59836;52.132;5.442;2023-04-27T08:53:24;102203.88;;;8.99;60.57
71966;BME280;59836;52.132;5.442;2023-04-27T08:55:51;102204.81;;;9.05;60.69
71966;BME280;59836;52.132;5.442;2023-04-27T08:58:18;102205.78;;;9.10;60.04
71966;BME280;59836;52.132;5.442;2023-04-27T09:00:45;102203.22;;;9.15;59.68
71966;BME280;59836;52.132;5.442;2023-04-27T09:03:24;102207.88;;;9.27;59.77
71966;BME280;59836;52.132;5.442;2023-04-27T09:05:51;102205.19;;;9.27;58.10
71966;BME280;59836;52.132;5.442;2023-04-27T09:08:56;102210.16;;;9.30;58.70
71966;BME280;59836;52.132;5.442;2023-04-27T09:11:41;102206.03;;;9.27;57.49
71966;BME280;59836;52.132;5.442;2023-04-27T09:14:17;102206.78;;;9.35;58.11
71966;BME280;59836;52.132;5.442;2023-04-27T09:16:44;102206.22;;;9.44;57.18
71966;BME280;59836;52.132;5.442;2023-04-27T09:19:10;102199.09;;;9.50;56.85
71966;BME280;59836;52.132;5.442;2023-04-27T09:21:37;102191.91;;;9.56;56.63
71966;BME280;59836;52.132;5.442;2023-04-27T09:24:11;102195.50;;;9.68;57.49
71966;BME280;59836;52.132;5.442;2023-04-27T09:26:39;102192.00;;;9.80;56.29
71966;BME280;59836;52.132;5.442;2023-04-27T09:29:08;102188.97;;;9.88;56.80
71966;BME280;59836;52.132;5.442;2023-04-27T09:31:35;102188.38;;;9.86;56.64
71966;BME280;59836;52.132;5.442;2023-04-27T09:34:02;102183.44;;;9.95;56.44
71966;BME280;59836;52.132;5.442;2023-04-27T09:36:29;102181.69;;;10.00;56.14
71966;BME280;59836;52.132;5.442;2023-04-27T09:38:58;102179.13;;;10.06;55.15
71966;BME280;59836;52.132;5.442;2023-04-27T09:41:27;102183.34;;;10.01;54.47
71966;BME280;59836;52.132;5.442;2023-04-27T09:43:55;102176.75;;;9.97;54.30
71966;BME280;59836;52.132;5.442;2023-04-27T09:46:25;102180.03;;;9.99;54.48
71966;BME280;59836;52.132;5.442;2023-04-27T09:48:56;102180.75;;;10.07;55.06
71966;BME280;59836;52.132;5.442;2023-04-27T09:51:23;102183.09;;;10.15;54.80
71966;BME280;59836;52.132;5.442;2023-04-27T09:53:56;102179.47;;;10.21;54.62
71966;BME280;59836;52.132;5.442;2023-04-27T09:59:04;102171.56;;;10.31;53.64
71966;BME280;59836;52.132;5.442;2023-04-27T10:01:44;102172.75;;;10.36;53.89
71966;BME280;59836;52.132;5.442;2023-04-27T10:04:19;102168.97;;;10.37;53.81
71966;BME280;59836;52.132;5.442;2023-04-27T10:07:13;102170.28;;;10.34;53.71
71966;BME280;59836;52.132;5.442;2023-04-27T10:09:49;102166.53;;;10.47;53.65
71966;BME280;59836;52.132;5.442;2023-04-27T10:12:35;102176.22;;;10.55;53.07
71966;BME280;59836;52.132;5.442;2023-04-27T10:15:25;102176.44;;;10.65;53.31
71966;BME280;59836;52.132;5.442;2023-04-27T10:17:53;102174.56;;;10.66;52.16
71966;BME280;59836;52.132;5.442;2023-04-27T10:20:42;102172.66;;;10.66;52.32
71966;BME280;59836;52.132;5.442;2023-04-27T10:23:24;102171.25;;;10.63;52.15
71966;BME280;59836;52.132;5.442;2023-04-27T10:25:52;102175.25;;;10.61;52.69
71966;BME280;59836;52.132;5.442;2023-04-27T10:28:19;102177.75;;;10.62;52.95
71966;BME280;59836;52.132;5.442;2023-04-27T10:30:47;102174.78;;;10.64;51.94
71966;BME280;59836;52.132;5.442;2023-04-27T10:33:21;102170.78;;;10.67;51.83
71966;BME280;59836;52.132;5.442;2023-04-27T10:35:57;102166.53;;;10.71;52.35
71966;BME280;59836;52.132;5.442;2023-04-27T10:38:27;102175.38;;;10.78;52.81
71966;BME280;59836;52.132;5.442;2023-04-27T10:41:11;102171.59;;;10.79;51.83
71966;BME280;59836;52.132;5.442;2023-04-27T10:43:47;102169.38;;;10.76;50.80
71966;BME280;59836;52.132;5.442;2023-04-27T10:46:24;102169.47;;;10.69;50.81
71966;BME280;59836;52.132;5.442;2023-04-27T10:48:51;102173.34;;;10.73;51.37
71966;BME280;59836;52.132;5.442;2023-04-27T10:51:18;102170.75;;;10.78;51.78
71966;BME280;59836;52.132;5.442;2023-04-27T10:53:44;102155.91;;;10.81;51.77
71966;BME280;59836;52.132;5.442;2023-04-27T10:56:11;102156.59;;;10.88;51.29
71966;BME280;59836;52.132;5.442;2023-04-27T10:58:38;102160.97;;;10.89;51.55
71966;BME280;59836;52.132;5.442;2023-04-27T11:01:10;102157.41;;;11.01;50.43
71966;BME280;59836;52.132;5.442;2023-04-27T11:03:39;102155.59;;;11.06;50.62
71966;BME280;59836;52.132;5.442;2023-04-27T11:06:06;102147.09;;;11.15;52.34
71966;BME280;59836;52.132;5.442;2023-04-27T11:08:42;102152.06;;;11.35;51.37
71966;BME280;59836;52.132;5.442;2023-04-27T11:11:21;102147.88;;;11.56;49.38
71966;BME280;59836;52.132;5.442;2023-04-27T11:13:53;102146.91;;;11.62;50.23
71966;BME280;59836;52.132;5.442;2023-04-27T11:16:27;102141.28;;;11.69;49.42
71966;BME280;59836;52.132;5.442;2023-04-27T11:19:05;102130.41;;;11.69;50.04
71966;BME280;59836;52.132;5.442;2023-04-27T11:21:35;102121.88;;;11.77;47.77
71966;BME280;59836;52.132;5.442;2023-04-27T11:24:07;102124.91;;;11.64;48.54
71966;BME280;59836;52.132;5.442;2023-04-27T11:26:51;102117.41;;;11.71;51.20
71966;BME280;59836;52.132;5.442;2023-04-27T11:29:24;102101.84;;;11.84;50.35
71966;BME280;59836;52.132;5.442;2023-04-27T11:31:51;102111.47;;;11.91;49.62
71966;BME280;59836;52.132;5.442;2023-04-27T11:34:22;102106.53;;;11.88;48.21
71966;BME280;59836;52.132;5.442;2023-04-27T11:37:03;102111.97;;;11.88;48.98
71966;BME280;59836;52.132;5.442;2023-04-27T11:39:38;102106.50;;;12.00;48.86
71966;BME280;59836;52.132;5.442;2023-04-27T11:42:33;102104.94;;;12.04;49.42
71966;BME280;59836;52.132;5.442;2023-04-27T11:45:02;102095.53;;;12.12;49.32
71966;BME280;59836;52.132;5.442;2023-04-27T11:47:32;102096.34;;;12.13;48.31
71966;BME280;59836;52.132;5.442;2023-04-27T11:50:02;102099.81;;;12.08;47.59
71966;BME280;59836;52.132;5.442;2023-04-27T11:52:36;102108.03;;;11.96;46.86
71966;BME280;59836;52.132;5.442;2023-04-27T11:55:05;102103.41;;;11.79;47.37
71966;BME280;59836;52.132;5.442;2023-04-27T11:57:35;102099.63;;;11.80;47.15
71966;BME280;59836;52.132;5.442;2023-04-27T12:00:05;102102.34;;;11.80;47.59
71966;BME280;59836;52.132;5.442;2023-04-27T12:02:37;102093.88;;;11.94;48.33
71966;BME280;59836;52.132;5.442;2023-04-27T12:05:07;102093.72;;;12.01;47.58
71966;BME280;59836;52.132;5.442;2023-04-27T12:07:38;102088.50;;;11.99;47.25
71966;BME280;59836;52.132;5.442;2023-04-27T12:10:05;102084.75;;;12.00;46.85
71966;BME280;59836;52.132;5.442;2023-04-27T12:12:33;102086.97;;;12.03;47.35
71966;BME280;59836;52.132;5.442;2023-04-27T12:14:59;102087.63;;;12.10;48.66
71966;BME280;59836;52.132;5.442;2023-04-27T12:17:26;102082.00;;;12.17;47.67
71966;BME280;59836;52.132;5.442;2023-04-27T12:19:53;102081.31;;;12.27;48.83
71966;BME280;59836;52.132;5.442;2023-04-27T12:22:20;102089.13;;;12.40;47.47
71966;BME280;59836;52.132;5.442;2023-04-27T12:24:50;102092.97;;;12.45;46.61
71966;BME280;59836;52.132;5.442;2023-04-27T12:27:18;102086.88;;;12.37;45.76
71966;BME280;59836;52.132;5.442;2023-04-27T12:29:44;102079.16;;;12.29;45.84
71966;BME280;59836;52.132;5.442;2023-04-27T12:32:11;102073.97;;;12.28;46.87
71966;BME280;59836;52.132;5.442;2023-04-27T12:34:38;102073.88;;;12.39;46.77
71966;BME280;59836;52.132;5.442;2023-04-27T12:37:05;102072.72;;;12.35;45.69
71966;BME280;59836;52.132;5.442;2023-04-27T12:39:32;102064.81;;;12.34;46.01
71966;BME280;59836;52.132;5.442;2023-04-27T12:41:58;102055.88;;;12.38;46.31
71966;BME280;59836;52.132;5.442;2023-04-27T12:44:25;102057.03;;;12.43;46.62
71966;BME280;59836;52.132;5.442;2023-04-27T12:46:52;102053.38;;;12.54;45.53
71966;BME280;59836;52.132;5.442;2023-04-27T12:49:18;102053.38;;;12.54;45.85
71966;BME280;59836;52.132;5.442;2023-04-27T12:51:45;102057.50;;;12.57;45.28
71966;BME280;59836;52.132;5.442;2023-04-27T12:54:13;102051.72;;;12.53;44.59
71966;BME280;59836;52.132;5.442;2023-04-27T12:56:40;102050.06;;;12.52;45.89
71966;BME280;59836;52.132;5.442;2023-04-27T12:59:07;102043.56;;;12.53;46.35
71966;BME280;59836;52.132;5.442;2023-04-27T13:01:33;102046.91;;;12.60;47.16
71966;BME280;59836;52.132;5.442;2023-04-27T13:04:02;102049.19;;;12.68;46.93
71966;BME280;59836;52.132;5.442;2023-04-27T13:06:30;102047.34;;;12.74;47.13